Time;durP1;ratioP1;P1;durP2;ratioP2;P2;SDS_P1;SDS_P2;PMS_P1;PMS_P2;Temp;Humidity;BMP_temperature;BMP_pressure;BME280_temperature;BME280_humidity;BME280_pressure;Samples;Min_cycle;Max_cycle;Signal;HPM_P1;HPM_P2
2022/01/08 00:02:08;;;;;;;4.00;1.92;;;2.80;99.90;;;;;;5080705;28;20030;-70
2022/01/08 00:04:34;;;;;;;6.85;1.85;;;2.80;99.90;;;;;;5081554;28;20078;-70
2022/01/08 00:06:59;;;;;;;8.73;2.00;;;2.80;99.90;;;;;;5078230;28;20051;-70
2022/01/08 00:09:25;;;;;;;9.00;2.42;;;2.80;99.90;;;;;;5082784;28;20098;-70
2022/01/08 00:11:51;;;;;;;5.85;2.00;;;2.80;99.90;;;;;;5077533;28;20040;-70
2022/01/08 00:14:20;;;;;;;4.45;1.77;;;2.80;99.90;;;;;;5061170;28;20040;-70
2022/01/08 00:16:46;;;;;;;8.15;2.42;;;2.80;99.90;;;;;;5062134;28;20101;-70
2022/01/08 00:19:12;;;;;;;5.80;2.17;;;2.70;99.90;;;;;;5077414;28;20439;-70
2022/01/08 00:21:38;;;;;;;5.93;2.50;;;2.80;99.90;;;;;;5083207;28;20051;-70
2022/01/08 00:24:04;;;;;;;4.38;2.03;;;2.80;99.90;;;;;;5078047;28;20040;-70
2022/01/08 00:26:30;;;;;;;3.85;2.28;;;2.80;99.90;;;;;;5078682;28;20127;-70
2022/01/08 00:28:56;;;;;;;6.03;2.05;;;2.80;99.90;;;;;;5081663;28;20035;-70
2022/01/08 00:31:21;;;;;;;7.13;2.67;;;2.80;99.90;;;;;;5075312;28;20093;-70
2022/01/08 00:33:47;;;;;;;4.28;2.10;;;2.80;99.90;;;;;;5082327;28;20040;-70
2022/01/08 00:36:13;;;;;;;5.10;1.75;;;2.80;99.90;;;;;;5076374;28;20036;-70
2022/01/08 00:38:39;;;;;;;5.10;1.50;;;2.80;99.90;;;;;;5067228;28;20032;-70
2022/01/08 00:41:05;;;;;;;5.43;2.10;;;2.80;99.90;;;;;;5062763;28;20472;-70
2022/01/08 00:43:31;;;;;;;6.05;2.15;;;2.80;99.90;;;;;;5077730;28;20117;-70
2022/01/08 00:45:57;;;;;;;6.85;2.50;;;2.80;99.90;;;;;;5080695;28;20040;-70
2022/01/08 00:48:23;;;;;;;3.88;1.88;;;2.80;99.90;;;;;;5078527;28;20119;-70
2022/01/08 00:50:52;;;;;;;6.47;2.05;;;2.90;99.90;;;;;;5077255;28;20028;-70
2022/01/08 00:53:19;;;;;;;6.30;1.92;;;2.90;99.90;;;;;;5080672;28;20128;-70
2022/01/08 00:55:45;;;;;;;7.15;1.95;;;2.90;99.90;;;;;;5077038;28;20515;-69
2022/01/08 00:58:11;;;;;;;6.60;2.60;;;2.90;99.90;;;;;;5078709;28;20144;-69
2022/01/08 01:00:38;;;;;;;3.63;1.70;;;2.90;99.90;;;;;;5077440;28;20040;-70
2022/01/08 01:03:04;;;;;;;3.00;1.52;;;2.90;99.90;;;;;;5079032;28;20048;-70
2022/01/08 01:05:30;;;;;;;4.32;2.00;;;2.90;99.90;;;;;;5081081;28;20055;-70
2022/01/08 01:07:56;;;;;;;4.18;2.30;;;2.90;99.90;;;;;;5074417;28;20119;-70
2022/01/08 01:10:22;;;;;;;8.38;2.28;;;2.90;99.90;;;;;;5080214;28;20572;-70
2022/01/08 01:12:48;;;;;;;3.40;1.95;;;2.90;99.90;;;;;;5076890;28;20058;-69
2022/01/08 01:15:16;;;;;;;8.20;2.58;;;2.90;99.90;;;;;;5076828;28;20044;-69
2022/01/08 01:17:43;;;;;;;8.45;1.60;;;3.00;99.90;;;;;;5080387;28;20131;-69
2022/01/08 01:20:12;;;;;;;5.03;1.67;;;2.90;99.90;;;;;;5076797;28;20429;-69
2022/01/08 01:25:10;;;;;;;2.63;1.58;;;2.90;99.90;;;;;;5080274;28;20076;-69
2022/01/08 01:27:56;;;;;;;7.50;1.50;;;2.80;99.90;;;;;;5074873;28;20067;-69
2022/01/08 01:30:39;;;;;;;1.48;0.82;;;2.80;99.90;;;;;;5080561;28;20062;-69
2022/01/08 01:49:07;;;;;;;4.72;1.00;;;2.80;99.90;;;;;;5077978;28;20133;-69
2022/01/08 01:51:33;;;;;;;7.40;1.50;;;2.70;99.90;;;;;;5076940;28;20031;-69
2022/01/08 01:53:59;;;;;;;4.22;1.27;;;2.80;99.90;;;;;;5078548;28;20044;-69
2022/01/08 01:56:25;;;;;;;1.08;0.82;;;2.70;99.90;;;;;;5075286;28;20408;-69
2022/01/08 01:58:51;;;;;;;3.60;0.98;;;2.80;99.90;;;;;;5079127;28;20083;-69
2022/01/08 02:01:17;;;;;;;5.55;1.10;;;2.80;99.90;;;;;;5077817;28;20462;-69
2022/01/08 02:03:43;;;;;;;3.75;1.73;;;2.80;99.90;;;;;;5076640;28;20317;-70
2022/01/08 02:06:09;;;;;;;3.80;1.30;;;2.80;99.90;;;;;;5080541;28;20461;-69
2022/01/08 02:08:37;;;;;;;4.72;1.20;;;2.80;99.90;;;;;;5075271;28;20297;-70
2022/01/08 02:11:04;;;;;;;2.22;1.20;;;2.80;99.90;;;;;;5080937;28;20484;-69
2022/01/08 02:13:29;;;;;;;2.80;1.17;;;2.80;99.90;;;;;;5082338;28;20047;-70
2022/01/08 02:15:57;;;;;;;2.85;1.02;;;2.80;99.90;;;;;;5062610;28;20036;-69
2022/01/08 02:18:27;;;;;;;2.97;1.15;;;2.80;99.90;;;;;;5083063;28;20063;-70
2022/01/08 02:20:58;;;;;;;3.28;1.35;;;2.80;99.90;;;;;;5079781;28;20044;-70
2022/01/08 02:23:26;;;;;;;4.88;1.70;;;2.70;99.90;;;;;;5080542;28;20044;-70
2022/01/08 02:26:01;;;;;;;1.33;0.80;;;2.70;99.90;;;;;;5083922;28;20063;-70
2022/01/08 02:28:26;;;;;;;2.65;1.40;;;2.70;99.90;;;;;;5079533;28;20118;-69
2022/01/08 02:30:52;;;;;;;3.45;1.40;;;2.70;99.90;;;;;;5067158;28;20122;-70
2022/01/08 02:33:22;;;;;;;6.15;1.35;;;2.70;99.90;;;;;;5081700;28;20109;-69
2022/01/08 02:35:48;;;;;;;2.85;1.20;;;2.70;99.90;;;;;;5081401;28;20036;-70
2022/01/08 02:38:14;;;;;;;3.58;1.50;;;2.70;99.90;;;;;;5057185;28;20272;-69
2022/01/08 02:40:49;;;;;;;3.08;1.08;;;2.70;99.90;;;;;;5079668;28;20512;-70
2022/01/08 02:43:15;;;;;;;3.05;1.00;;;2.70;99.90;;;;;;5080389;28;20047;-69
2022/01/08 02:45:40;;;;;;;4.57;1.45;;;2.70;99.90;;;;;;5081569;28;20040;-69
2022/01/08 02:48:06;;;;;;;3.58;1.08;;;2.70;99.90;;;;;;5082896;28;20042;-69
2022/01/08 02:50:32;;;;;;;4.05;1.23;;;2.70;99.90;;;;;;5083167;28;20065;-69
2022/01/08 02:52:58;;;;;;;4.00;1.20;;;2.80;99.90;;;;;;5080294;28;20047;-69
2022/01/08 02:55:24;;;;;;;7.65;1.27;;;2.70;99.90;;;;;;5083793;28;20039;-69
2022/01/08 02:57:50;;;;;;;4.63;1.15;;;2.80;99.90;;;;;;5081932;28;20810;-69
2022/01/08 03:00:18;;;;;;;2.10;1.30;;;2.80;99.90;;;;;;5079417;28;20397;-70
2022/01/08 03:02:49;;;;;;;4.75;1.75;;;2.80;99.90;;;;;;5083307;28;20416;-69
2022/01/08 03:05:16;;;;;;;3.08;1.17;;;2.80;99.90;;;;;;5076982;28;20044;-69
2022/01/08 03:07:44;;;;;;;6.38;1.85;;;2.70;99.90;;;;;;5080766;28;20043;-69
2022/01/08 03:10:12;;;;;;;3.20;1.10;;;2.70;99.90;;;;;;5082600;28;20036;-69
2022/01/08 03:12:41;;;;;;;7.10;2.45;;;2.70;99.90;;;;;;5080306;28;20512;-69
2022/01/08 03:15:16;;;;;;;2.88;1.00;;;2.60;99.90;;;;;;5083859;28;20053;-70
2022/01/08 03:17:43;;;;;;;5.70;1.52;;;2.60;99.90;;;;;;5068560;28;20485;-69
2022/01/08 03:20:13;;;;;;;6.32;1.55;;;2.60;99.90;;;;;;5080727;28;20119;-69
2022/01/08 03:22:40;;;;;;;6.25;1.30;;;2.60;99.90;;;;;;5083003;28;20548;-69
2022/01/08 03:25:07;;;;;;;3.22;1.25;;;2.60;99.90;;;;;;5077631;28;20047;-69
2022/01/08 03:27:33;;;;;;;3.92;1.23;;;2.60;99.90;;;;;;5083415;28;20685;-69
2022/01/08 03:29:59;;;;;;;2.67;1.15;;;2.60;99.90;;;;;;5078856;28;20040;-69
2022/01/08 03:32:25;;;;;;;2.45;1.30;;;2.60;99.90;;;;;;5080292;28;20066;-69
2022/01/08 03:34:52;;;;;;;2.72;1.58;;;2.60;99.90;;;;;;5064894;28;20032;-69
2022/01/08 03:37:18;;;;;;;4.97;1.70;;;2.60;99.90;;;;;;5078697;28;20036;-69
2022/01/08 03:39:44;;;;;;;3.38;1.40;;;2.60;99.90;;;;;;5081823;28;20056;-69
2022/01/08 03:42:11;;;;;;;7.30;2.15;;;2.60;99.90;;;;;;5079148;28;20044;-69
2022/01/08 03:44:37;;;;;;;3.67;1.60;;;2.70;99.90;;;;;;5074646;28;20044;-69
2022/01/08 03:49:48;;;;;;;4.38;1.35;;;2.70;99.90;;;;;;5077295;28;20174;-70
2022/01/08 03:52:13;;;;;;;5.97;1.50;;;2.70;99.90;;;;;;5080898;28;20527;-69
2022/01/08 03:54:40;;;;;;;4.95;1.30;;;2.60;99.90;;;;;;5082626;28;20541;-69
2022/01/08 03:57:06;;;;;;;2.08;1.08;;;2.60;99.90;;;;;;5079388;28;20048;-70
2022/01/08 03:59:32;;;;;;;7.15;1.65;;;2.60;99.90;;;;;;5082655;28;20040;-70
2022/01/08 04:01:58;;;;;;;3.28;1.35;;;2.60;99.90;;;;;;5079843;28;20044;-70
2022/01/08 04:04:24;;;;;;;5.55;1.60;;;2.60;99.90;;;;;;5059955;28;20040;-69
2022/01/08 04:06:50;;;;;;;6.70;1.20;;;2.60;99.90;;;;;;5079968;28;20135;-69
2022/01/08 04:09:17;;;;;;;4.10;1.40;;;2.60;99.90;;;;;;5077300;28;20054;-69
2022/01/08 04:11:43;;;;;;;4.00;1.52;;;2.60;99.90;;;;;;5081877;28;20090;-69
2022/01/08 04:14:09;;;;;;;4.32;1.73;;;2.60;99.90;;;;;;5077277;28;20040;-69
2022/01/08 04:16:41;;;;;;;6.15;1.90;;;2.60;99.90;;;;;;5081051;28;20188;-69
2022/01/08 04:19:07;;;;;;;6.40;1.42;;;2.60;99.90;;;;;;5081256;28;20052;-70
2022/01/08 04:24:04;;;;;;;6.38;1.70;;;2.60;99.90;;;;;;5081695;28;20337;-69
2022/01/08 04:26:30;;;;;;;4.97;1.75;;;2.60;99.90;;;;;;5079897;28;20040;-69
2022/01/08 04:28:56;;;;;;;2.25;1.50;;;2.60;99.90;;;;;;5077650;28;20271;-69
2022/01/08 04:31:23;;;;;;;5.80;1.77;;;2.60;99.90;;;;;;5080726;28;20043;-69
2022/01/08 04:33:49;;;;;;;4.72;1.60;;;2.60;99.90;;;;;;5075523;28;20036;-69
2022/01/08 04:36:15;;;;;;;7.32;1.58;;;2.60;99.90;;;;;;5079532;28;20413;-69
2022/01/08 04:38:41;;;;;;;3.60;1.52;;;2.70;99.90;;;;;;5062909;28;20312;-70
2022/01/08 04:41:07;;;;;;;3.60;1.40;;;2.70;99.90;;;;;;5078998;28;20044;-69
2022/01/08 04:43:36;;;;;;;5.15;1.70;;;2.70;99.90;;;;;;5080343;28;20482;-69
2022/01/08 04:46:02;;;;;;;3.67;1.63;;;2.70;99.90;;;;;;5075627;28;20055;-70
2022/01/08 04:48:28;;;;;;;9.10;2.38;;;2.70;99.90;;;;;;5062129;28;20071;-70
2022/01/08 04:50:54;;;;;;;3.17;1.40;;;2.70;99.90;;;;;;5077670;28;20412;-69
2022/01/08 04:53:20;;;;;;;4.95;1.50;;;2.80;99.90;;;;;;5077788;28;20047;-69
2022/01/08 04:55:46;;;;;;;7.55;2.13;;;2.70;99.90;;;;;;5082886;28;20225;-69
2022/01/08 04:58:11;;;;;;;7.57;1.55;;;2.70;99.90;;;;;;5079081;28;20039;-69
2022/01/08 05:00:38;;;;;;;2.75;1.50;;;2.80;99.90;;;;;;5079951;28;20040;-69
2022/01/08 05:03:05;;;;;;;4.70;1.92;;;2.80;99.90;;;;;;5081090;28;20090;-69
2022/01/08 05:05:31;;;;;;;3.47;1.05;;;2.70;99.90;;;;;;5076635;28;20056;-70
2022/01/08 05:07:57;;;;;;;6.90;1.67;;;2.80;99.90;;;;;;5081507;28;20578;-69
2022/01/08 05:10:23;;;;;;;3.42;1.55;;;2.80;99.90;;;;;;5079219;28;20046;-70
2022/01/08 05:12:48;;;;;;;8.50;2.63;;;2.70;99.90;;;;;;5058696;28;20052;-69
2022/01/08 05:15:16;;;;;;;5.45;2.13;;;2.70;99.90;;;;;;5079578;28;20086;-69
2022/01/08 05:17:43;;;;;;;4.25;1.50;;;2.70;99.90;;;;;;5075685;28;20055;-69
2022/01/08 05:20:12;;;;;;;3.83;1.38;;;2.70;99.90;;;;;;5079665;28;20123;-69
2022/01/08 05:22:50;;;;;;;6.68;1.80;;;2.70;99.90;;;;;;5078890;28;20123;-69
2022/01/08 05:25:17;;;;;;;6.90;1.65;;;2.70;99.90;;;;;;5076421;28;20119;-69
2022/01/08 05:27:43;;;;;;;8.20;2.33;;;2.60;99.90;;;;;;5080291;28;20109;-69
2022/01/08 05:30:11;;;;;;;3.20;1.67;;;2.60;99.90;;;;;;5075742;28;20042;-69
2022/01/08 05:32:37;;;;;;;8.55;2.00;;;2.60;99.90;;;;;;5075595;28;20129;-69
2022/01/08 05:35:03;;;;;;;3.70;2.03;;;2.60;99.90;;;;;;5078894;28;20040;-69
2022/01/08 05:37:29;;;;;;;4.97;1.67;;;2.60;99.90;;;;;;5075896;28;20105;-69
2022/01/08 05:39:55;;;;;;;4.95;1.58;;;2.50;99.90;;;;;;5081555;28;20044;-69
2022/01/08 05:42:21;;;;;;;2.97;1.73;;;2.50;99.90;;;;;;5076013;28;20046;-69
2022/01/08 05:44:46;;;;;;;5.47;1.65;;;2.50;99.90;;;;;;5073465;28;20039;-70
2022/01/08 05:47:13;;;;;;;6.63;2.20;;;2.50;99.90;;;;;;5076010;28;20144;-69
2022/01/08 05:49:40;;;;;;;4.95;1.90;;;2.50;99.90;;;;;;5072100;28;20659;-69
2022/01/08 05:52:07;;;;;;;4.97;1.90;;;2.50;99.90;;;;;;5075175;28;20504;-69
2022/01/08 05:54:33;;;;;;;6.75;2.40;;;2.50;99.90;;;;;;5072125;28;20043;-69
2022/01/08 05:56:59;;;;;;;8.13;2.55;;;2.40;99.90;;;;;;5077319;28;20047;-69
2022/01/08 05:59:26;;;;;;;7.80;1.90;;;2.40;99.90;;;;;;5077025;28;20402;-69
2022/01/08 06:01:56;;;;;;;4.38;2.10;;;2.40;99.90;;;;;;5074216;28;20078;-70
2022/01/08 06:04:23;;;;;;;3.50;1.85;;;2.40;99.90;;;;;;5080781;28;20040;-69
2022/01/08 06:06:49;;;;;;;5.05;1.90;;;2.40;99.90;;;;;;5075706;28;20052;-69
2022/01/08 06:09:15;;;;;;;5.25;2.28;;;2.40;99.90;;;;;;5077764;28;20032;-69
2022/01/08 06:11:41;;;;;;;8.18;2.15;;;2.30;99.90;;;;;;5062390;28;20044;-70
2022/01/08 06:14:07;;;;;;;7.75;2.00;;;2.40;99.90;;;;;;5071106;28;20045;-69
2022/01/08 06:16:35;;;;;;;4.88;1.48;;;2.30;99.90;;;;;;5079423;28;20490;-69
2022/01/08 06:19:04;;;;;;;7.13;2.08;;;2.30;99.90;;;;;;5075900;28;20028;-69
2022/01/08 06:21:29;;;;;;;3.83;2.30;;;2.30;99.90;;;;;;5079629;28;20040;-69
2022/01/08 06:23:56;;;;;;;4.90;2.10;;;2.30;99.90;;;;;;5078630;28;20406;-69
2022/01/08 06:26:22;;;;;;;5.70;2.00;;;2.30;99.90;;;;;;5076714;28;20071;-70
2022/01/08 06:28:49;;;;;;;4.70;2.30;;;2.30;99.90;;;;;;5079265;28;20043;-69
2022/01/08 06:31:15;;;;;;;5.70;2.78;;;2.30;99.90;;;;;;5076216;28;20044;-69
2022/01/08 06:33:42;;;;;;;5.38;2.00;;;2.30;99.90;;;;;;5076826;28;20518;-69
2022/01/08 06:36:09;;;;;;;8.65;2.30;;;2.30;99.90;;;;;;5080214;28;20424;-69
2022/01/08 06:38:34;;;;;;;9.35;2.22;;;2.30;99.90;;;;;;5072266;28;20473;-69
2022/01/08 06:41:00;;;;;;;3.90;2.00;;;2.30;99.90;;;;;;5079985;28;20058;-69
2022/01/08 06:43:26;;;;;;;8.60;2.28;;;2.20;99.90;;;;;;5077446;28;20039;-69
2022/01/08 06:45:52;;;;;;;6.50;2.70;;;2.20;99.90;;;;;;5077479;28;20032;-69
2022/01/08 06:48:17;;;;;;;9.43;2.35;;;2.20;99.90;;;;;;5078512;28;20040;-69
2022/01/08 06:50:43;;;;;;;3.95;2.30;;;2.20;99.90;;;;;;5073722;28;20077;-69
2022/01/08 06:53:09;;;;;;;5.80;1.75;;;2.20;99.90;;;;;;5078724;28;20032;-69
2022/01/08 06:55:35;;;;;;;3.00;2.00;;;2.20;99.90;;;;;;5078006;28;20417;-70
2022/01/08 06:58:01;;;;;;;11.43;2.30;;;2.20;99.90;;;;;;5080621;28;20343;-69
2022/01/08 07:00:27;;;;;;;7.85;1.92;;;2.20;99.90;;;;;;5083873;28;20139;-69
2022/01/08 07:02:53;;;;;;;4.05;2.08;;;2.20;99.90;;;;;;5080078;28;20032;-69
2022/01/08 07:05:19;;;;;;;6.25;1.75;;;2.10;99.90;;;;;;5079943;28;20119;-69
2022/01/08 07:07:44;;;;;;;3.65;2.00;;;2.10;99.90;;;;;;5081969;28;20382;-69
2022/01/08 07:10:10;;;;;;;7.05;2.22;;;2.10;99.90;;;;;;5078986;28;20041;-69
2022/01/08 07:12:36;;;;;;;6.57;2.58;;;2.10;99.90;;;;;;5082105;28;20176;-69
2022/01/08 07:15:04;;;;;;;4.53;2.45;;;2.10;99.90;;;;;;5077528;28;20032;-69
2022/01/08 07:17:29;;;;;;;7.72;2.55;;;2.10;99.90;;;;;;5081300;28;20077;-69
2022/01/08 07:19:55;;;;;;;13.90;3.13;;;2.10;99.90;;;;;;5080457;28;20040;-69
2022/01/08 07:22:21;;;;;;;5.38;2.08;;;2.00;99.90;;;;;;5081168;28;20353;-69
2022/01/08 07:24:46;;;;;;;8.27;2.50;;;2.00;99.90;;;;;;5082708;28;20123;-69
2022/01/08 07:27:13;;;;;;;8.82;2.53;;;2.00;99.90;;;;;;5080555;28;20531;-69
2022/01/08 07:29:39;;;;;;;9.45;2.42;;;2.10;99.90;;;;;;5080166;28;20051;-70
2022/01/08 07:32:05;;;;;;;2.83;1.70;;;2.10;99.90;;;;;;5082059;28;20040;-70
2022/01/08 07:34:31;;;;;;;6.32;2.53;;;2.10;99.90;;;;;;5077531;28;20045;-69
2022/01/08 07:36:57;;;;;;;8.07;2.08;;;2.10;99.90;;;;;;5083157;28;20532;-69
2022/01/08 07:39:23;;;;;;;5.78;1.98;;;2.00;99.90;;;;;;5077494;28;20194;-69
2022/01/08 07:41:49;;;;;;;8.63;2.63;;;2.10;99.90;;;;;;5083906;28;20049;-71
2022/01/08 07:44:15;;;;;;;7.13;2.55;;;2.10;99.90;;;;;;5079942;28;20119;-69
2022/01/08 07:46:40;;;;;;;7.72;2.95;;;2.10;99.90;;;;;;5080278;28;20043;-69
2022/01/08 07:49:06;;;;;;;8.38;2.47;;;2.10;99.90;;;;;;5083043;28;20374;-69
2022/01/08 07:51:32;;;;;;;6.53;2.92;;;2.10;99.90;;;;;;5079073;28;20088;-69
2022/01/08 07:53:58;;;;;;;6.30;2.60;;;2.10;99.90;;;;;;5050762;28;20492;-69
2022/01/08 07:56:23;;;;;;;12.68;3.00;;;2.10;99.90;;;;;;5080950;28;20064;-69
2022/01/08 07:58:49;;;;;;;6.72;2.72;;;2.10;99.90;;;;;;5077551;28;20040;-69
2022/01/08 08:01:15;;;;;;;11.25;2.80;;;2.10;99.90;;;;;;5064233;28;20044;-69
2022/01/08 08:03:41;;;;;;;7.60;3.03;;;2.10;99.90;;;;;;5080910;28;20127;-69
2022/01/08 08:06:10;;;;;;;7.63;2.50;;;2.10;99.90;;;;;;5079892;28;20092;-69
2022/01/08 08:08:36;;;;;;;8.85;2.97;;;2.20;99.90;;;;;;5081724;28;20166;-69
2022/01/08 08:11:02;;;;;;;11.27;3.30;;;2.20;99.90;;;;;;5077925;28;20580;-69
2022/01/08 08:13:28;;;;;;;6.95;2.25;;;2.20;99.90;;;;;;5082473;28;20040;-70
2022/01/08 08:15:54;;;;;;;6.07;2.50;;;2.20;99.90;;;;;;5075635;28;20043;-70
2022/01/08 08:18:20;;;;;;;5.47;2.88;;;2.20;99.90;;;;;;5079840;28;20139;-69
2022/01/08 08:20:46;;;;;;;7.28;3.05;;;2.20;99.90;;;;;;5079399;28;20047;-71
2022/01/08 08:23:11;;;;;;;7.68;2.92;;;2.20;99.90;;;;;;5080318;28;20094;-69
2022/01/08 08:25:37;;;;;;;13.50;3.50;;;2.20;99.90;;;;;;5080617;28;20549;-69
2022/01/08 08:28:04;;;;;;;3.88;2.85;;;2.20;99.90;;;;;;5080019;28;20584;-69
2022/01/08 08:30:31;;;;;;;14.13;3.28;;;2.20;99.90;;;;;;5078139;28;20031;-69
2022/01/08 08:32:56;;;;;;;7.20;2.65;;;2.20;99.90;;;;;;5079821;28;20524;-69
2022/01/08 08:35:23;;;;;;;6.45;2.75;;;2.20;99.90;;;;;;5076283;28;20047;-69
2022/01/08 08:37:49;;;;;;;5.68;2.97;;;2.20;99.90;;;;;;5080711;28;20045;-69
2022/01/08 08:40:15;;;;;;;8.65;3.67;;;2.20;99.90;;;;;;5093250;28;20116;-69
2022/01/08 08:42:42;;;;;;;6.22;4.25;;;2.20;99.90;;;;;;5080445;28;21706;-69
2022/01/08 08:45:09;;;;;;;7.93;3.67;;;2.30;99.90;;;;;;5045592;28;20123;-69
2022/01/08 08:47:35;;;;;;;7.10;3.88;;;2.30;99.90;;;;;;5076965;28;20043;-70
2022/01/08 08:50:03;;;;;;;10.63;2.78;;;2.30;99.90;;;;;;5082810;28;20032;-69
2022/01/08 08:52:28;;;;;;;5.53;3.05;;;2.30;99.90;;;;;;5077930;28;20487;-70
2022/01/08 08:54:54;;;;;;;8.35;3.35;;;2.30;99.90;;;;;;5079871;28;20039;-70
2022/01/08 08:57:20;;;;;;;8.00;3.38;;;2.30;99.90;;;;;;5081116;28;20140;-70
2022/01/08 08:59:46;;;;;;;7.30;2.65;;;2.30;99.90;;;;;;5072746;28;20123;-69
2022/01/08 09:02:12;;;;;;;10.13;3.33;;;2.30;99.90;;;;;;5081118;28;20470;-69
2022/01/08 09:04:40;;;;;;;6.55;3.13;;;2.30;99.90;;;;;;5078293;28;20054;-70
2022/01/08 09:07:07;;;;;;;10.00;3.05;;;2.30;99.90;;;;;;5076432;28;20075;-69
2022/01/08 09:09:33;;;;;;;7.63;3.25;;;2.30;99.90;;;;;;5081125;28;20048;-69
2022/01/08 09:11:59;;;;;;;7.25;2.88;;;2.30;99.90;;;;;;5075955;28;20631;-69
2022/01/08 09:14:26;;;;;;;7.47;3.38;;;2.40;99.90;;;;;;5079183;28;20565;-69
2022/01/08 09:16:57;;;;;;;7.00;3.92;;;2.40;99.90;;;;;;5076721;28;20154;-69
2022/01/08 09:19:23;;;;;;;7.03;3.15;;;2.40;99.90;;;;;;5075461;28;20044;-69
2022/01/08 09:21:50;;;;;;;7.32;3.80;;;2.50;99.90;;;;;;5082514;28;20048;-69
2022/01/08 09:24:18;;;;;;;8.20;3.45;;;2.50;99.90;;;;;;5078333;28;20040;-70
2022/01/08 09:26:45;;;;;;;15.38;3.97;;;2.60;99.90;;;;;;5079704;28;20123;-70
2022/01/08 09:29:11;;;;;;;10.23;3.55;;;2.60;99.90;;;;;;5077267;28;20041;-70
2022/01/08 09:31:38;;;;;;;13.15;3.63;;;2.70;99.90;;;;;;5076235;28;20042;-69
2022/01/08 09:34:06;;;;;;;8.73;3.53;;;2.70;99.90;;;;;;5080155;28;20043;-69
2022/01/08 09:36:32;;;;;;;5.85;3.38;;;2.80;99.90;;;;;;5075639;28;20052;-70
2022/01/08 09:38:58;;;;;;;5.72;3.17;;;2.80;99.90;;;;;;5079989;28;20043;-70
2022/01/08 09:41:24;;;;;;;9.77;3.53;;;2.90;99.90;;;;;;5080054;28;20509;-70
2022/01/08 09:43:50;;;;;;;6.75;3.85;;;2.90;99.90;;;;;;5075482;28;20063;-69
2022/01/08 09:46:16;;;;;;;14.50;3.80;;;2.90;99.90;;;;;;5077445;28;20075;-69
2022/01/08 09:48:43;;;;;;;7.43;3.97;;;2.90;99.90;;;;;;5075012;28;20032;-69
2022/01/08 09:51:09;;;;;;;17.08;5.22;;;3.00;99.90;;;;;;5059386;28;20448;-69
2022/01/08 09:53:36;;;;;;;6.22;3.38;;;3.00;99.90;;;;;;5079276;28;20126;-69
2022/01/08 09:56:04;;;;;;;6.80;3.90;;;2.90;99.90;;;;;;5076283;28;20653;-69
2022/01/08 09:58:31;;;;;;;8.20;3.80;;;3.00;99.90;;;;;;5079845;28;20051;-69
2022/01/08 10:00:57;;;;;;;9.30;3.72;;;3.00;99.90;;;;;;5076786;28;20044;-69
2022/01/08 10:03:26;;;;;;;6.68;3.85;;;3.00;99.90;;;;;;5078771;28;20044;-70
2022/01/08 10:05:54;;;;;;;9.20;3.28;;;3.00;99.90;;;;;;5080028;28;20063;-69
2022/01/08 10:08:41;;;;;;;8.98;3.28;;;3.00;99.90;;;;;;5074355;28;20557;-70
2022/01/08 10:11:07;;;;;;;11.05;4.43;;;3.10;99.90;;;;;;5079768;28;20036;-69
2022/01/08 10:13:38;;;;;;;9.93;3.13;;;3.10;99.90;;;;;;5076207;28;20051;-69
2022/01/08 10:18:55;;;;;;;11.68;4.28;;;3.10;99.90;;;;;;5077295;28;20044;-69
2022/01/08 10:21:26;;;;;;;11.88;4.55;;;3.10;99.90;;;;;;5077837;28;20040;-69
2022/01/08 10:23:56;;;;;;;8.27;3.50;;;3.10;99.90;;;;;;5076824;28;20043;-69
2022/01/08 10:26:30;;;;;;;11.02;4.22;;;3.20;99.90;;;;;;5080833;28;20156;-70
2022/01/08 10:28:59;;;;;;;10.68;3.50;;;3.20;99.90;;;;;;5074846;28;20032;-69
2022/01/08 10:31:33;;;;;;;8.23;3.95;;;3.20;99.90;;;;;;5080302;28;20032;-69
2022/01/08 10:34:01;;;;;;;8.60;4.50;;;3.20;99.90;;;;;;5080483;28;21650;-70
2022/01/08 10:36:32;;;;;;;12.13;4.35;;;3.20;99.90;;;;;;5076902;28;20067;-69
2022/01/08 10:39:00;;;;;;;7.07;3.67;;;3.20;99.90;;;;;;5080994;28;20077;-70
2022/01/08 10:41:27;;;;;;;6.93;3.60;;;3.20;99.90;;;;;;5078667;28;20032;-69
2022/01/08 10:44:08;;;;;;;6.85;4.03;;;3.20;99.90;;;;;;5079290;28;20213;-69
2022/01/08 10:46:35;;;;;;;13.93;4.60;;;3.20;99.90;;;;;;5079629;28;20101;-69
2022/01/08 10:49:00;;;;;;;11.00;4.30;;;3.20;99.90;;;;;;5077631;28;20032;-69
2022/01/08 10:51:32;;;;;;;9.57;4.10;;;3.20;99.90;;;;;;5081418;28;20557;-69
2022/01/08 10:54:06;;;;;;;6.50;4.82;;;3.20;99.90;;;;;;5079873;28;20052;-69
2022/01/08 10:56:38;;;;;;;9.13;4.63;;;3.30;99.90;;;;;;5076612;28;20035;-69
2022/01/08 10:59:14;;;;;;;8.07;4.25;;;3.30;99.90;;;;;;5079434;28;20074;-69
2022/01/08 11:01:51;;;;;;;15.35;4.45;;;3.30;99.90;;;;;;5079666;28;20040;-70
2022/01/08 11:04:30;;;;;;;10.40;4.93;;;3.30;99.90;;;;;;5078741;28;20048;-69
2022/01/08 11:07:07;;;;;;;8.70;4.80;;;3.30;99.90;;;;;;5082490;28;20225;-69
2022/01/08 11:09:35;;;;;;;16.00;4.95;;;3.40;99.90;;;;;;5078961;28;20036;-69
2022/01/08 11:12:02;;;;;;;12.93;4.90;;;3.40;99.90;;;;;;5081470;28;20472;-69
2022/01/08 11:17:28;;;;;;;20.35;10.60;;;3.40;99.90;;;;;;5067681;28;20054;-69
2022/01/08 11:19:59;;;;;;;22.23;8.82;;;3.50;99.90;;;;;;5081574;28;20055;-69
2022/01/08 11:22:28;;;;;;;15.68;8.10;;;3.50;99.90;;;;;;5062921;28;20582;-69
2022/01/08 11:25:01;;;;;;;17.40;7.57;;;3.50;99.90;;;;;;5075732;28;20056;-70
2022/01/08 11:27:37;;;;;;;11.13;6.25;;;3.50;99.90;;;;;;5080305;28;20036;-69
2022/01/08 11:30:10;;;;;;;13.30;6.22;;;3.50;99.90;;;;;;5078628;28;20028;-69
2022/01/08 11:32:36;;;;;;;;;;;3.60;99.90;;;;;;5076210;28;20439;-69
2022/01/08 11:35:05;;;;;;;20.80;7.80;;;3.60;99.90;;;;;;5079503;28;19926;-69
2022/01/08 11:37:31;;;;;;;9.15;7.30;;;3.60;99.90;;;;;;5077778;28;20032;-69
2022/01/08 11:40:00;;;;;;;17.00;7.00;;;3.60;99.90;;;;;;5081421;28;20112;-69
2022/01/08 11:42:26;;;;;;;24.10;11.40;;;3.60;99.90;;;;;;5079742;28;20047;-70
2022/01/08 11:44:56;;;;;;;24.13;11.57;;;3.60;99.90;;;;;;5076415;28;20115;-70
2022/01/08 11:47:22;;;;;;;14.95;7.57;;;3.60;99.90;;;;;;5083198;28;20036;-69
2022/01/08 11:49:48;;;;;;;15.10;6.15;;;3.60;99.90;;;;;;5076701;28;20543;-69
2022/01/08 11:52:17;;;;;;;14.73;6.75;;;3.70;99.90;;;;;;5081437;28;20043;-70
2022/01/08 11:54:44;;;;;;;12.65;6.50;;;3.70;99.90;;;;;;5079424;28;20043;-69
2022/01/08 11:57:28;;;;;;;16.90;6.47;;;3.70;99.90;;;;;;5078049;28;20036;-69
2022/01/08 11:59:58;;;;;;;13.55;6.60;;;3.70;99.90;;;;;;5081405;28;20503;-69
2022/01/08 12:02:40;;;;;;;12.35;5.72;;;3.70;99.90;;;;;;5082022;28;20113;-70
2022/01/08 12:05:08;;;;;;;13.75;6.18;;;3.70;99.90;;;;;;5077667;28;20061;-69
2022/01/08 12:07:35;;;;;;;14.23;6.15;;;3.70;99.90;;;;;;5082842;28;20051;-69
2022/01/08 12:10:20;;;;;;;10.68;5.93;;;3.80;99.90;;;;;;5076726;28;20044;-70
2022/01/08 12:12:57;;;;;;;10.68;5.90;;;3.80;99.90;;;;;;5078476;28;20062;-70
2022/01/08 12:15:41;;;;;;;11.60;6.88;;;3.80;99.90;;;;;;5079030;28;20040;-69
2022/01/08 12:18:08;;;;;;;16.35;6.55;;;3.90;99.90;;;;;;5078867;28;20127;-69
2022/01/08 12:20:38;;;;;;;12.40;6.40;;;3.90;99.90;;;;;;5070570;28;20117;-69
2022/01/08 12:23:22;;;;;;;14.93;6.78;;;3.90;99.90;;;;;;5082133;28;20516;-69
2022/01/08 12:25:48;;;;;;;12.95;7.03;;;3.90;99.90;;;;;;5078764;28;20032;-69
2022/01/08 12:28:39;;;;;;;9.68;6.80;;;3.90;99.90;;;;;;5080416;28;20120;-69
2022/01/08 12:31:38;;;;;;;17.48;7.65;;;3.90;99.90;;;;;;5080677;28;20123;-69
2022/01/08 12:34:30;;;;;;;14.02;7.85;;;4.00;99.90;;;;;;5078484;28;20182;-69
2022/01/08 12:37:02;;;;;;;10.60;6.32;;;3.90;99.90;;;;;;5076406;28;20581;-71
2022/01/08 12:39:43;;;;;;;11.88;7.20;;;3.90;99.90;;;;;;5081022;28;20032;-69
2022/01/08 12:42:24;;;;;;;12.35;7.20;;;3.90;99.90;;;;;;5078655;28;20067;-70
2022/01/08 12:45:13;;;;;;;11.77;7.50;;;3.90;99.90;;;;;;5079882;28;20083;-70
2022/01/08 12:48:01;;;;;;;9.55;6.68;;;3.90;99.90;;;;;;5079329;28;20048;-70
2022/01/08 12:50:42;;;;;;;11.00;7.32;;;3.90;99.90;;;;;;5076285;28;20037;-70
2022/01/08 12:53:08;;;;;;;13.35;7.32;;;3.90;99.90;;;;;;5079433;28;20662;-70
2022/01/08 12:55:54;;;;;;;11.18;8.18;;;3.80;99.90;;;;;;5080079;28;20134;-70
2022/01/08 12:58:30;;;;;;;16.10;9.38;;;3.80;99.90;;;;;;5077783;28;20419;-69
2022/01/08 13:00:57;;;;;;;14.05;7.88;;;3.80;99.90;;;;;;5077159;28;20044;-69
2022/01/08 13:03:35;;;;;;;12.65;7.78;;;3.80;99.90;;;;;;5080763;28;20089;-70
2022/01/08 13:06:21;;;;;;;13.20;8.73;;;3.80;99.90;;;;;;5072492;28;20132;-69
2022/01/08 13:08:48;;;;;;;10.27;7.78;;;3.80;99.90;;;;;;5076519;28;20044;-70
2022/01/08 13:11:16;;;;;;;13.30;7.47;;;3.80;99.90;;;;;;5074767;28;20486;-69
2022/01/08 13:13:48;;;;;;;16.48;8.25;;;3.80;99.90;;;;;;5072530;28;20048;-70
2022/01/08 13:16:18;;;;;;;13.00;8.43;;;3.80;99.90;;;;;;5077942;28;20043;-70
2022/01/08 13:18:55;;;;;;;10.77;7.50;;;3.80;99.90;;;;;;5078759;28;20048;-69
2022/01/08 13:21:35;;;;;;;10.40;7.78;;;3.70;99.90;;;;;;5082125;28;20032;-70
2022/01/08 13:24:23;;;;;;;8.88;5.65;;;3.70;99.90;;;;;;5079695;28;20036;-69
2022/01/08 13:26:54;;;;;;;9.57;6.15;;;3.70;99.90;;;;;;5076176;28;20063;-70
2022/01/08 13:29:21;;;;;;;12.30;5.85;;;3.70;99.90;;;;;;5075072;28;20048;-69
2022/01/08 13:31:50;;;;;;;11.65;5.88;;;3.70;99.90;;;;;;5079342;28;20044;-70